createdAt,value
2022-10-31T00:01:31.156Z,10.50
2022-10-31T00:03:59.190Z,10.00
2022-10-31T00:06:27.134Z,9.80
2022-10-31T00:08:57.754Z,11.10
2022-10-31T00:11:25.734Z,11.30
2022-10-31T00:13:54.056Z,12.40
2022-10-31T00:16:23.808Z,10.70
2022-10-31T00:18:53.577Z,10.40
2022-10-31T00:21:22.457Z,12.30
2022-10-31T00:23:50.291Z,11.80
2022-10-31T00:26:18.415Z,10.80
2022-10-31T00:28:46.416Z,11.10
2022-10-31T00:31:14.883Z,11.80
2022-10-31T00:33:43.044Z,10.20
2022-10-31T00:36:18.860Z,11.40
2022-10-31T00:38:47.966Z,11.40
2022-10-31T00:41:18.523Z,11.10
2022-10-31T00:43:46.486Z,11.90
2022-10-31T00:46:14.945Z,11.20
2022-10-31T00:48:43.123Z,11.30
2022-10-31T00:51:11.519Z,12.10
2022-10-31T00:53:40.986Z,11.90
2022-10-31T00:56:09.052Z,12.40
2022-10-31T00:58:36.859Z,12.80
2022-10-31T01:01:05.230Z,12.70
2022-10-31T01:03:34.431Z,12.70
2022-10-31T01:06:09.016Z,14.20
2022-10-31T01:08:38.219Z,14.50
2022-10-31T01:11:12.573Z,15.00
2022-10-31T01:13:42.393Z,14.80
2022-10-31T01:16:12.718Z,12.10
2022-10-31T01:18:40.393Z,18.20
2022-10-31T01:21:12.551Z,15.20
2022-10-31T01:23:40.727Z,13.60
2022-10-31T01:26:14.700Z,13.50
2022-10-31T01:28:51.030Z,11.10
2022-10-31T01:31:21.201Z,12.60
2022-10-31T01:33:49.711Z,12.10
2022-10-31T01:36:22.390Z,18.80
2022-10-31T01:38:54.225Z,18.20
2022-10-31T01:41:24.870Z,22.10
2022-10-31T01:43:54.278Z,19.80
2022-10-31T01:46:26.660Z,20.60
2022-10-31T01:48:56.131Z,19.50
2022-10-31T01:51:29.785Z,16.70
2022-10-31T01:56:29.359Z,13.40
2022-10-31T01:59:00.831Z,14.50
2022-10-31T02:01:30.028Z,20.30
2022-10-31T02:03:57.976Z,15.50
2022-10-31T02:06:38.514Z,14.40
2022-10-31T02:09:07.075Z,10.30
2022-10-31T02:11:36.757Z,10.50
2022-10-31T02:14:04.809Z,13.90
2022-10-31T02:16:32.496Z,11.80
2022-10-31T02:19:00.448Z,10.90
2022-10-31T02:22:06.900Z,10.10
2022-10-31T02:24:53.932Z,10.30
2022-10-31T02:27:53.432Z,9.60
2022-10-31T02:30:41.877Z,10.70
2022-10-31T02:33:34.121Z,10.70
2022-10-31T02:36:21.680Z,12.40
2022-10-31T02:39:04.503Z,13.20
2022-10-31T02:42:09.106Z,14.60
2022-10-31T02:44:56.083Z,12.90
2022-10-31T02:47:29.251Z,13.40
2022-10-31T02:50:23.407Z,13.50
2022-10-31T02:52:53.052Z,11.90
2022-10-31T02:55:23.675Z,11.20
2022-10-31T02:58:07.462Z,13.00
2022-10-31T03:00:51.161Z,12.50
2022-10-31T03:03:22.320Z,12.20
2022-10-31T03:06:21.599Z,12.70
2022-10-31T03:09:18.938Z,11.50
2022-10-31T03:12:07.303Z,12.30
2022-10-31T03:14:43.078Z,10.90
2022-10-31T03:17:21.688Z,11.50
2022-10-31T03:19:53.358Z,12.20
2022-10-31T03:22:24.735Z,11.30
2022-10-31T03:24:54.274Z,13.10
2022-10-31T03:27:27.817Z,11.50
2022-10-31T03:29:59.129Z,11.40
2022-10-31T03:32:39.106Z,11.50
2022-10-31T03:35:08.604Z,10.50
2022-10-31T03:37:38.699Z,12.90
2022-10-31T03:40:12.927Z,11.90
2022-10-31T03:42:46.029Z,11.40
2022-10-31T03:45:21.249Z,13.10
2022-10-31T03:47:48.870Z,11.20
2022-10-31T03:50:17.807Z,11.90
2022-10-31T03:53:05.258Z,11.70
2022-10-31T03:55:41.495Z,11.80
2022-10-31T03:58:25.058Z,10.80
2022-10-31T04:00:57.619Z,10.70
2022-10-31T04:03:30.827Z,10.80
2022-10-31T04:06:04.199Z,12.40
2022-10-31T04:08:39.058Z,12.30
2022-10-31T04:11:09.930Z,13.30
2022-10-31T04:16:17.154Z,14.40
2022-10-31T04:18:45.703Z,11.60
2022-10-31T04:21:13.371Z,12.10
2022-10-31T04:23:40.928Z,12.90
2022-10-31T04:26:15.094Z,13.00
2022-10-31T04:28:45.016Z,11.40
2022-10-31T04:31:13.537Z,12.10
2022-10-31T04:33:41.552Z,12.30
2022-10-31T04:36:09.304Z,11.70
2022-10-31T04:38:37.132Z,11.50
2022-10-31T04:41:09.122Z,12.30
2022-10-31T04:43:48.940Z,10.90
2022-10-31T04:46:17.041Z,11.30
2022-10-31T04:48:44.605Z,11.30
2022-10-31T04:51:12.544Z,10.30
2022-10-31T04:53:40.096Z,11.50
2022-10-31T04:56:23.691Z,10.30
2022-10-31T04:58:56.829Z,11.40
2022-10-31T05:01:25.608Z,11.60
2022-10-31T05:03:53.389Z,11.30
2022-10-31T05:06:20.977Z,10.10
2022-10-31T05:08:48.561Z,10.50
2022-10-31T05:11:16.351Z,11.70
2022-10-31T05:13:44.755Z,12.20
2022-10-31T05:16:15.028Z,11.00
2022-10-31T05:19:08.645Z,11.00
2022-10-31T05:21:36.245Z,11.20
2022-10-31T05:24:04.947Z,11.30
2022-10-31T05:26:32.965Z,9.60
2022-10-31T05:29:01.460Z,9.80
2022-10-31T05:31:29.707Z,10.10
2022-10-31T05:33:57.657Z,9.90
2022-10-31T05:36:41.279Z,10.10
2022-10-31T05:39:20.282Z,9.20
2022-10-31T05:41:52.144Z,10.70
2022-10-31T05:44:28.726Z,11.30
2022-10-31T05:47:18.749Z,11.00
2022-10-31T05:50:02.407Z,10.00
2022-10-31T05:52:45.032Z,8.90
2022-10-31T05:55:20.166Z,8.40
2022-10-31T05:58:08.085Z,9.10
2022-10-31T06:00:36.679Z,8.30
2022-10-31T06:05:50.666Z,8.40
2022-10-31T06:08:21.826Z,8.70
2022-10-31T06:10:50.277Z,10.40
2022-10-31T06:13:22.165Z,9.40
2022-10-31T06:15:59.606Z,13.20
2022-10-31T06:18:33.244Z,10.40
2022-10-31T06:21:01.145Z,10.20
2022-10-31T06:23:29.712Z,8.70
2022-10-31T06:26:17.409Z,9.50
2022-10-31T06:28:45.124Z,11.30
2022-10-31T06:31:32.929Z,10.80
2022-10-31T06:34:00.672Z,10.90
2022-10-31T06:38:55.836Z,11.00
2022-10-31T06:41:24.152Z,12.30
2022-10-31T06:43:52.270Z,9.80
2022-10-31T06:46:35.074Z,10.20
2022-10-31T06:49:14.746Z,9.30
2022-10-31T06:51:49.476Z,10.30
2022-10-31T06:54:18.130Z,9.60
2022-10-31T06:56:49.220Z,10.60
2022-10-31T06:59:17.402Z,11.10
2022-10-31T07:02:00.282Z,11.40
2022-10-31T07:04:28.213Z,10.10
2022-10-31T07:06:56.097Z,10.80
2022-10-31T07:09:23.652Z,10.30
2022-10-31T07:11:53.945Z,10.40
2022-10-31T07:14:21.561Z,9.30
2022-10-31T07:16:51.497Z,12.30
2022-10-31T07:19:23.561Z,12.50
2022-10-31T07:21:51.117Z,10.50
2022-10-31T07:24:18.881Z,11.70
2022-10-31T07:27:09.301Z,9.10
2022-10-31T07:29:37.031Z,10.80
2022-10-31T07:32:05.573Z,9.50
2022-10-31T07:34:33.704Z,9.30
2022-10-31T07:37:17.237Z,9.20
2022-10-31T07:39:45.071Z,10.00
2022-10-31T07:42:12.764Z,10.50
2022-10-31T07:44:44.505Z,9.70
2022-10-31T07:47:28.122Z,10.60
2022-10-31T07:50:17.443Z,10.10
2022-10-31T07:53:08.034Z,10.90
2022-10-31T07:55:46.148Z,9.60
2022-10-31T07:58:18.228Z,11.30
2022-10-31T08:00:48.467Z,9.00
2022-10-31T08:03:20.096Z,11.60
2022-10-31T08:06:03.739Z,9.10
2022-10-31T08:08:47.262Z,10.30
2022-10-31T08:11:15.963Z,9.50
2022-10-31T08:13:44.109Z,9.90
2022-10-31T08:16:14.452Z,9.10
2022-10-31T08:18:51.163Z,9.20
2022-10-31T08:21:19.193Z,8.20
2022-10-31T08:23:49.120Z,8.60
2022-10-31T08:26:16.663Z,8.10
2022-10-31T08:28:44.535Z,9.20
2022-10-31T08:31:12.296Z,8.90
2022-10-31T08:33:42.712Z,9.40
2022-10-31T08:36:26.287Z,10.00
2022-10-31T08:39:09.827Z,9.90
2022-10-31T08:41:37.377Z,9.60
2022-10-31T08:44:08.398Z,9.60
2022-10-31T08:46:36.804Z,9.60
2022-10-31T08:49:05.812Z,10.30
2022-10-31T08:51:33.467Z,12.30
2022-10-31T08:54:01.004Z,10.30
2022-10-31T08:56:28.703Z,9.80
2022-10-31T08:58:56.640Z,10.30
2022-10-31T09:01:33.011Z,10.70
2022-10-31T09:04:00.777Z,10.40
2022-10-31T09:06:29.260Z,13.50
2022-10-31T09:08:56.895Z,10.60
2022-10-31T09:11:26.272Z,11.50
2022-10-31T09:14:19.912Z,11.60
2022-10-31T09:17:10.275Z,10.90
2022-10-31T09:19:56.702Z,11.50
2022-10-31T09:22:28.004Z,10.60
2022-10-31T09:24:55.657Z,10.30
2022-10-31T09:27:23.592Z,10.00
2022-10-31T09:29:51.335Z,10.40
2022-10-31T09:32:20.529Z,10.70
2022-10-31T09:34:48.079Z,10.70
2022-10-31T09:37:20.439Z,11.80
2022-10-31T09:39:48.097Z,11.00
2022-10-31T09:42:53.917Z,11.70
2022-10-31T09:45:42.739Z,12.10
2022-10-31T09:48:28.784Z,12.10
2022-10-31T09:51:18.099Z,10.70
2022-10-31T09:54:17.551Z,12.80
2022-10-31T09:56:46.036Z,11.60
2022-10-31T09:59:38.743Z,11.30
2022-10-31T10:02:27.999Z,10.40
2022-10-31T10:05:02.058Z,10.90
2022-10-31T10:07:33.590Z,12.60
2022-10-31T10:10:36.939Z,12.50
2022-10-31T10:13:37.462Z,11.90
2022-10-31T10:16:22.431Z,12.90
2022-10-31T10:19:18.638Z,12.50
2022-10-31T10:22:01.123Z,11.50
2022-10-31T10:24:45.059Z,12.20
2022-10-31T10:29:53.938Z,14.90
2022-10-31T10:32:25.799Z,14.10
2022-10-31T10:35:00.273Z,16.00
2022-10-31T10:37:39.472Z,15.60
2022-10-31T10:40:16.781Z,16.20
2022-10-31T10:43:23.492Z,14.70
2022-10-31T10:46:17.403Z,13.30
2022-10-31T10:48:57.828Z,13.90
2022-10-31T10:52:02.678Z,13.20
2022-10-31T10:54:42.039Z,15.20
2022-10-31T10:57:22.986Z,17.30
2022-10-31T10:59:52.115Z,17.60
2022-10-31T11:02:34.709Z,16.20
2022-10-31T11:05:04.662Z,19.00
2022-10-31T11:07:40.627Z,16.20
2022-10-31T11:10:16.885Z,18.50
2022-10-31T11:12:58.183Z,18.70
2022-10-31T11:15:28.448Z,17.50
2022-10-31T11:17:57.295Z,18.60
2022-10-31T11:20:40.891Z,17.00
2022-10-31T11:23:26.711Z,17.30
2022-10-31T11:26:00.719Z,18.00
2022-10-31T11:28:30.417Z,21.20
2022-10-31T11:31:00.316Z,18.60
2022-10-31T11:33:33.782Z,20.40
2022-10-31T11:36:03.586Z,19.80
2022-10-31T11:38:49.117Z,20.00
2022-10-31T11:41:19.794Z,17.00
2022-10-31T11:43:52.861Z,19.10
2022-10-31T11:46:43.408Z,19.80
2022-10-31T11:49:19.262Z,20.10
2022-10-31T11:51:56.962Z,19.00
2022-10-31T11:54:31.513Z,17.30
2022-10-31T11:56:59.378Z,18.60
2022-10-31T11:59:33.348Z,18.30
2022-10-31T12:02:02.792Z,17.20
2022-10-31T12:04:39.552Z,18.60
2022-10-31T12:07:07.184Z,19.30
2022-10-31T12:09:37.364Z,16.10
2022-10-31T12:12:23.814Z,19.30
2022-10-31T12:15:23.234Z,16.30
2022-10-31T12:18:06.698Z,18.90
2022-10-31T12:21:08.851Z,18.10
2022-10-31T12:23:50.957Z,19.20
2022-10-31T12:26:40.240Z,18.20
2022-10-31T12:29:39.732Z,17.50
2022-10-31T12:32:31.600Z,19.00
2022-10-31T12:35:15.146Z,17.50
2022-10-31T12:37:58.979Z,17.30
2022-10-31T12:40:36.719Z,20.10
2022-10-31T12:43:36.146Z,18.10
2022-10-31T12:46:09.137Z,18.90
2022-10-31T12:49:08.671Z,17.80
2022-10-31T12:52:01.856Z,18.30
2022-10-31T12:54:51.610Z,18.70
2022-10-31T12:57:39.668Z,18.30
2022-10-31T13:00:19.121Z,21.80
2022-10-31T13:02:55.798Z,19.90
2022-10-31T13:05:27.549Z,18.10
2022-10-31T13:08:11.045Z,19.00
2022-10-31T13:10:48.931Z,22.50
2022-10-31T13:13:20.591Z,19.90
2022-10-31T13:15:52.573Z,21.40
2022-10-31T13:18:40.600Z,18.90
2022-10-31T13:21:17.889Z,22.30
2022-10-31T13:23:51.575Z,22.50
2022-10-31T13:26:47.109Z,22.20
2022-10-31T13:29:31.741Z,19.30
2022-10-31T13:32:05.008Z,20.50
2022-10-31T13:34:39.523Z,18.90
2022-10-31T13:37:17.673Z,20.50
2022-10-31T13:39:59.729Z,20.10
2022-10-31T13:42:42.120Z,19.00
2022-10-31T13:45:15.037Z,20.40
2022-10-31T13:47:43.922Z,22.50
2022-10-31T13:50:33.019Z,22.50
2022-10-31T13:53:21.412Z,19.50
2022-10-31T13:56:06.348Z,20.20
2022-10-31T13:58:33.993Z,20.50
2022-10-31T14:01:12.826Z,26.00
2022-10-31T14:04:06.209Z,23.30
2022-10-31T14:06:59.994Z,22.80
2022-10-31T14:09:38.563Z,29.50
2022-10-31T14:12:23.621Z,27.90
2022-10-31T14:14:54.964Z,27.80
2022-10-31T14:17:33.321Z,30.50
2022-10-31T14:20:24.725Z,22.90
2022-10-31T14:22:53.060Z,24.10
2022-10-31T14:25:37.436Z,24.00
2022-10-31T14:28:41.301Z,23.40
2022-10-31T14:31:34.426Z,22.50
2022-10-31T14:34:20.392Z,22.60
2022-10-31T14:37:03.900Z,22.60
2022-10-31T14:39:56.941Z,22.30
2022-10-31T14:42:30.217Z,19.70
2022-10-31T14:45:13.727Z,19.00
2022-10-31T14:47:57.738Z,20.30
2022-10-31T14:52:57.002Z,21.30
2022-10-31T14:55:25.588Z,17.90
2022-10-31T14:57:57.200Z,20.00
2022-10-31T15:00:26.362Z,22.30
2022-10-31T15:03:18.031Z,30.60
2022-10-31T15:05:55.286Z,24.50
2022-10-31T15:08:40.587Z,26.40
2022-10-31T15:11:26.440Z,28.80
2022-10-31T15:13:59.228Z,24.90
2022-10-31T15:16:34.335Z,19.20
2022-10-31T15:19:13.146Z,24.40
2022-10-31T15:21:47.009Z,28.70
2022-10-31T15:24:16.881Z,22.60
2022-10-31T15:26:48.454Z,22.90
2022-10-31T15:29:18.882Z,22.90
2022-10-31T15:31:54.322Z,25.50
2022-10-31T15:34:41.705Z,24.90
2022-10-31T15:37:17.841Z,24.40
2022-10-31T15:39:46.745Z,23.30
2022-10-31T15:42:50.517Z,24.10
2022-10-31T15:45:24.810Z,21.20
2022-10-31T15:47:58.142Z,28.70
2022-10-31T15:50:34.240Z,29.50
2022-10-31T15:53:03.004Z,22.10
2022-10-31T15:55:37.495Z,21.00
2022-10-31T15:58:14.594Z,20.70
2022-10-31T16:00:42.629Z,20.50
2022-10-31T16:03:16.085Z,22.10
2022-10-31T16:05:55.342Z,20.30
2022-10-31T16:08:33.591Z,21.20
2022-10-31T16:11:07.253Z,18.30
2022-10-31T16:19:03.033Z,19.80
2022-10-31T16:21:37.229Z,19.60
2022-10-31T16:24:19.795Z,25.60
2022-10-31T16:26:50.415Z,17.80
2022-10-31T16:29:40.218Z,15.80
2022-10-31T16:32:26.262Z,15.50
2022-10-31T16:35:10.307Z,17.60
2022-10-31T16:37:39.507Z,26.00
2022-10-31T16:40:09.183Z,84.00
2022-10-31T16:42:36.759Z,30.20
2022-10-31T16:45:06.483Z,21.30
2022-10-31T16:47:34.011Z,17.70
2022-10-31T16:50:01.835Z,18.00
2022-10-31T16:52:38.113Z,18.10
2022-10-31T16:55:15.801Z,17.60
2022-10-31T16:57:48.293Z,17.00
2022-10-31T17:00:19.858Z,19.80
2022-10-31T17:02:49.887Z,21.20
2022-10-31T17:05:19.852Z,24.10
2022-10-31T17:07:48.575Z,24.70
2022-10-31T17:10:16.442Z,28.90
2022-10-31T17:12:47.751Z,33.10
2022-10-31T17:15:25.100Z,29.60
2022-10-31T17:17:53.691Z,31.70
2022-10-31T17:20:29.995Z,40.30
2022-10-31T17:22:59.625Z,57.10
2022-10-31T17:25:30.064Z,42.70
2022-10-31T17:27:59.373Z,47.80
2022-10-31T17:30:27.810Z,36.40
2022-10-31T17:32:55.369Z,25.70
2022-10-31T17:35:23.478Z,26.40
2022-10-31T17:37:51.040Z,27.70
2022-10-31T17:40:21.258Z,30.50
2022-10-31T17:42:53.524Z,33.90
2022-10-31T17:45:22.975Z,25.40
2022-10-31T17:47:52.179Z,31.90
2022-10-31T17:50:21.947Z,16.60
2022-10-31T17:52:50.668Z,18.70
2022-10-31T17:55:19.119Z,16.30
2022-10-31T17:57:46.664Z,15.60
2022-10-31T18:00:18.179Z,14.50
2022-10-31T18:02:45.757Z,14.70
2022-10-31T18:05:13.693Z,14.20
2022-10-31T18:07:41.202Z,14.80
2022-10-31T18:10:09.461Z,14.70
2022-10-31T18:12:37.945Z,16.20
2022-10-31T18:15:06.356Z,14.90
2022-10-31T18:17:35.838Z,14.50
2022-10-31T18:20:06.458Z,13.50
2022-10-31T18:22:34.030Z,13.70
2022-10-31T18:25:02.564Z,13.70
2022-10-31T18:27:30.470Z,19.00
2022-10-31T18:29:58.339Z,17.00
2022-10-31T18:32:25.987Z,14.30
2022-10-31T18:34:53.818Z,14.20
2022-10-31T18:37:21.334Z,16.60
2022-10-31T18:39:48.875Z,13.90
2022-10-31T18:42:16.856Z,12.30
2022-10-31T18:44:44.401Z,13.30
2022-10-31T18:47:11.953Z,13.10
2022-10-31T18:49:39.526Z,12.30
2022-10-31T18:52:07.126Z,12.40
2022-10-31T18:54:34.694Z,13.10
2022-10-31T18:57:02.376Z,14.50
2022-10-31T18:59:29.974Z,15.30
2022-10-31T19:01:57.757Z,14.60
2022-10-31T19:04:25.550Z,13.80
2022-10-31T19:06:55.134Z,14.30
2022-10-31T19:09:24.171Z,13.20
2022-10-31T19:11:51.702Z,12.20
2022-10-31T19:14:19.246Z,11.90
2022-10-31T19:16:46.946Z,12.00
2022-10-31T19:19:14.485Z,11.50
2022-10-31T19:21:41.989Z,10.60
2022-10-31T19:24:09.578Z,13.00
2022-10-31T19:26:37.088Z,11.50
2022-10-31T19:29:05.109Z,12.00
2022-10-31T19:31:32.657Z,11.80
2022-10-31T19:34:00.245Z,11.60
2022-10-31T19:36:29.484Z,11.60
2022-10-31T19:38:57.017Z,10.30
2022-10-31T19:41:27.189Z,11.60
2022-10-31T19:43:55.273Z,11.60
2022-10-31T19:46:54.253Z,12.60
2022-10-31T19:49:11.838Z,11.10
2022-10-31T19:51:39.388Z,12.20
2022-10-31T19:54:07.310Z,11.50
2022-10-31T19:56:35.007Z,12.00
2022-10-31T19:59:03.957Z,11.90
2022-10-31T20:01:31.894Z,12.30
2022-10-31T20:03:59.562Z,11.80
2022-10-31T20:06:33.146Z,11.00
2022-10-31T20:09:03.471Z,11.70
2022-10-31T20:11:31.195Z,11.70
2022-10-31T20:13:59.432Z,10.80
2022-10-31T20:16:28.477Z,11.50
2022-10-31T20:18:56.827Z,10.60
2022-10-31T20:21:27.236Z,11.30
2022-10-31T20:24:06.761Z,10.00
2022-10-31T20:26:35.545Z,9.40
2022-10-31T20:29:03.972Z,10.00
2022-10-31T20:31:34.575Z,11.20
2022-10-31T20:34:02.464Z,10.70
2022-10-31T20:36:30.855Z,9.80
2022-10-31T20:39:00.240Z,10.30
2022-10-31T20:41:27.790Z,10.00
2022-10-31T20:43:55.536Z,9.20
2022-10-31T20:46:26.175Z,9.40
2022-10-31T20:48:54.357Z,10.20
2022-10-31T20:51:25.038Z,9.90
2022-10-31T20:53:53.655Z,9.80
2022-10-31T20:56:23.986Z,10.40
2022-10-31T20:58:52.058Z,12.60
2022-10-31T21:01:22.872Z,10.60
2022-10-31T21:03:51.691Z,9.60
2022-10-31T21:06:21.138Z,10.30
2022-10-31T21:08:49.608Z,10.40
2022-10-31T21:11:20.036Z,9.60
2022-10-31T21:13:48.639Z,9.60
2022-10-31T21:16:22.807Z,10.50
2022-10-31T21:18:51.344Z,9.10
2022-10-31T21:21:20.607Z,9.80
2022-10-31T21:23:48.595Z,10.90
2022-10-31T21:26:20.973Z,9.10
2022-10-31T21:28:50.382Z,9.20
2022-10-31T21:31:18.600Z,10.60
2022-10-31T21:33:46.708Z,10.60
2022-10-31T21:36:15.118Z,8.80
2022-10-31T21:38:43.139Z,11.00
2022-10-31T21:41:14.549Z,9.50
2022-10-31T21:43:44.403Z,10.10
2022-10-31T21:46:18.541Z,10.20
2022-10-31T21:48:46.933Z,9.70
2022-10-31T21:51:22.248Z,10.70
2022-10-31T21:54:06.272Z,11.30
2022-10-31T21:56:34.554Z,10.30
2022-10-31T21:59:02.912Z,12.20
2022-10-31T22:01:31.660Z,9.80
2022-10-31T22:04:00.212Z,14.80
2022-10-31T22:06:30.106Z,17.90
2022-10-31T22:08:59.427Z,18.40
2022-10-31T22:11:30.536Z,15.20
2022-10-31T22:14:00.334Z,10.50
2022-10-31T22:16:29.708Z,9.40
2022-10-31T22:18:59.605Z,8.90
2022-10-31T22:21:28.558Z,9.60
2022-10-31T22:24:01.917Z,11.60
2022-10-31T22:26:33.153Z,9.90
2022-10-31T22:29:03.837Z,10.30
2022-10-31T22:31:33.342Z,9.70
2022-10-31T22:34:01.604Z,9.30
2022-10-31T22:36:30.691Z,8.90
2022-10-31T22:38:58.931Z,12.20
2022-10-31T22:41:31.720Z,9.20
2022-10-31T22:44:00.034Z,9.90
2022-10-31T22:46:30.445Z,10.80
2022-10-31T22:49:01.017Z,9.60
2022-10-31T22:51:34.491Z,9.30
2022-10-31T22:54:02.068Z,9.80
2022-10-31T22:56:32.234Z,12.10
2022-10-31T22:59:01.034Z,12.90
2022-10-31T23:01:32.091Z,10.50
2022-10-31T23:04:00.613Z,10.30
2022-10-31T23:06:30.321Z,10.30
2022-10-31T23:09:00.857Z,10.80
2022-10-31T23:11:35.269Z,12.30
2022-10-31T23:14:09.333Z,17.90
2022-10-31T23:16:57.248Z,12.30
2022-10-31T23:19:29.757Z,10.90
2022-10-31T23:22:00.966Z,11.00
2022-10-31T23:24:32.487Z,11.40
2022-10-31T23:27:08.473Z,11.00
2022-10-31T23:29:44.195Z,10.50
2022-10-31T23:32:32.032Z,11.00
2022-10-31T23:35:02.247Z,10.90
2022-10-31T23:37:32.056Z,10.70
2022-10-31T23:39:59.617Z,10.80
2022-10-31T23:42:28.282Z,10.20
2022-10-31T23:44:56.386Z,11.50
2022-10-31T23:47:23.969Z,10.70
2022-10-31T23:49:51.619Z,10.60
2022-10-31T23:52:19.548Z,10.40
2022-10-31T23:54:47.787Z,10.30
2022-10-31T23:57:16.876Z,10.70
2022-10-31T23:59:44.734Z,10.00
